Ute Mountain Indian Reservat, Colorado
Current Conditions -  °F | °C
As of 8:53 AM on Saturday 22 Nov 2014 (Local Time) from KCEZ Reporting Station
Clear Clear  
Wind Chill: 33°   Ceiling: Unl
Heat Index: 33°   Visibility: 10mi
Dew Point: 23°   Wind: 3mph
Humidity: 66%   Direction: 70°ENE
Pressure: 30.12"   Gusts: NA
Location:  37.1336°N, 108.707°W
Report Text: KCEZ 221553Z AUTO 07003KT 10SM CLR 01/M05 A3012 RMK AO2 SLP208 T00061050
Loading
Personal Weather Stations






























Interactive Weather Map New forecast layout! Learn more

10-Day Weather Forecast

Advertisements
Track Severe Weather on mobile